Time;durP1;ratioP1;P1;durP2;ratioP2;P2;SDS_P1;SDS_P2;PMS_P1;PMS_P2;Temp;Humidity;BMP_temperature;BMP_pressure;BME280_temperature;BME280_humidity;BME280_pressure;Samples;Min_cycle;Max_cycle;Signal;HPM_P1;HPM_P2
2022/04/20 00:00:50;;;;;;;2.60;2.40;;;;;;;;;;5024694;28;20228;-52
2022/04/20 00:03:16;;;;;;;2.33;2.23;;;;;;;;;;5014178;28;20548;-52
2022/04/20 00:05:42;;;;;;;2.50;2.40;;;;;;;;;;5030384;28;20202;-53
2022/04/20 00:08:09;;;;;;;2.60;2.40;;;;;;;;;;5014530;28;20198;-52
2022/04/20 00:10:35;;;;;;;2.63;2.43;;;;;;;;;;5019461;28;20186;-53
2022/04/20 00:13:01;;;;;;;2.55;2.35;;;;;;;;;;5014036;28;20416;-52
2022/04/20 00:15:28;;;;;;;2.70;2.50;;;;;;;;;;5027314;28;20202;-53
2022/04/20 00:17:54;;;;;;;2.53;2.40;;;;;;;;;;5016533;28;20191;-53
2022/04/20 00:20:20;;;;;;;2.73;2.53;;;;;;;;;;5031464;28;20316;-53
2022/04/20 00:22:46;;;;;;;2.23;2.13;;;;;;;;;;5027169;28;20179;-52
2022/04/20 00:25:13;;;;;;;2.80;2.60;;;;;;;;;;5019421;28;20241;-53
2022/04/20 00:27:39;;;;;;;2.70;2.50;;;;;;;;;;5019714;28;20714;-54
2022/04/20 00:30:06;;;;;;;2.43;2.33;;;;;;;;;;5024174;28;20606;-53
2022/04/20 00:32:33;;;;;;;2.40;2.30;;;;;;;;;;5022115;28;20214;-53
2022/04/20 00:34:59;;;;;;;3.43;2.60;;;;;;;;;;5019562;28;20556;-52
2022/04/20 00:37:25;;;;;;;2.30;2.20;;;;;;;;;;5016343;28;20236;-53
2022/04/20 00:39:51;;;;;;;2.90;2.60;;;;;;;;;;5027970;28;20186;-53
2022/04/20 00:42:17;;;;;;;2.80;2.60;;;;;;;;;;5017632;28;20216;-53
2022/04/20 00:44:43;;;;;;;2.50;2.40;;;;;;;;;;5029296;28;20278;-53
2022/04/20 00:47:10;;;;;;;3.70;2.50;;;;;;;;;;5020340;28;20194;-53
2022/04/20 00:49:37;;;;;;;2.70;2.50;;;;;;;;;;5039021;28;20190;-52
2022/04/20 00:52:06;;;;;;;2.67;2.47;;;;;;;;;;5030313;28;20182;-52
2022/04/20 00:54:32;;;;;;;2.57;2.37;;;;;;;;;;5023305;28;20557;-53
2022/04/20 00:56:59;;;;;;;3.33;3.13;;;;;;;;;;5026214;28;20214;-52
2022/04/20 00:59:29;;;;;;;3.37;3.07;;;;;;;;;;5022714;28;20361;-53
2022/04/20 01:01:56;;;;;;;2.80;2.60;;;;;;;;;;5014153;28;20444;-52
2022/04/20 01:04:22;;;;;;;2.83;2.50;;;;;;;;;;5012141;28;20802;-53
2022/04/20 01:06:52;;;;;;;2.50;2.30;;;;;;;;;;5008673;28;20198;-53
2022/04/20 01:09:18;;;;;;;2.90;2.80;;;;;;;;;;5022384;28;20178;-53
2022/04/20 01:11:44;;;;;;;2.60;2.40;;;;;;;;;;5029725;28;20185;-53
2022/04/20 01:14:11;;;;;;;3.30;2.87;;;;;;;;;;5025325;28;20539;-53
2022/04/20 01:16:37;;;;;;;2.70;2.50;;;;;;;;;;5035011;28;20543;-53
2022/04/20 01:19:04;;;;;;;2.93;2.73;;;;;;;;;;4994973;28;20202;-53
2022/04/20 01:21:30;;;;;;;2.77;2.57;;;;;;;;;;5028292;28;20240;-53
2022/04/20 01:23:56;;;;;;;2.40;2.27;;;;;;;;;;5028619;28;20713;-53
2022/04/20 01:26:22;;;;;;;2.83;2.63;;;;;;;;;;5013662;28;20268;-53
2022/04/20 01:28:49;;;;;;;2.90;2.70;;;;;;;;;;5011291;28;20170;-53
2022/04/20 01:31:16;;;;;;;2.63;2.43;;;;;;;;;;5021203;28;20491;-52
2022/04/20 01:33:45;;;;;;;2.30;2.20;;;;;;;;;;5010393;28;20629;-53
2022/04/20 01:36:12;;;;;;;2.47;2.30;;;;;;;;;;5041532;28;20185;-53
2022/04/20 01:38:38;;;;;;;3.67;2.50;;;;;;;;;;5011175;28;20183;-53
2022/04/20 01:41:05;;;;;;;2.80;2.60;;;;;;;;;;5026758;28;20185;-52
2022/04/20 01:43:31;;;;;;;2.43;2.23;;;;;;;;;;5011431;28;20544;-52
2022/04/20 01:45:57;;;;;;;2.50;2.37;;;;;;;;;;5015796;28;20241;-52
2022/04/20 01:48:23;;;;;;;2.57;2.20;;;;;;;;;;5008390;28;20186;-53
2022/04/20 01:53:35;;;;;;;2.20;2.10;;;;;;;;;;5024569;28;20180;-53
2022/04/20 01:56:03;;;;;;;3.47;3.27;;;;;;;;;;5021227;28;20196;-53
2022/04/20 01:58:29;;;;;;;3.40;3.20;;;;;;;;;;5029253;28;20312;-53
2022/04/20 02:00:55;;;;;;;2.50;2.30;;;;;;;;;;5024407;28;20174;-52
2022/04/20 02:03:21;;;;;;;5.37;5.07;;;;;;;;;;5013965;28;20189;-52
2022/04/20 02:05:48;;;;;;;2.13;2.00;;;;;;;;;;5012003;28;20229;-53
2022/04/20 02:08:14;;;;;;;2.90;2.70;;;;;;;;;;5011460;28;20325;-53
2022/04/20 02:10:40;;;;;;;3.27;2.70;;;;;;;;;;5023364;28;20656;-52
2022/04/20 02:13:06;;;;;;;5.57;3.00;;;;;;;;;;5019281;28;20190;-51
2022/04/20 02:15:32;;;;;;;2.83;2.63;;;;;;;;;;5012922;28;20237;-53
2022/04/20 02:17:59;;;;;;;2.90;2.70;;;;;;;;;;5027246;28;20555;-53
2022/04/20 02:20:25;;;;;;;3.37;3.07;;;;;;;;;;5010854;28;20706;-53
2022/04/20 02:22:51;;;;;;;2.83;2.63;;;;;;;;;;5010814;28;20650;-52
2022/04/20 02:25:17;;;;;;;2.70;2.50;;;;;;;;;;5013681;28;20286;-53
2022/04/20 02:27:43;;;;;;;3.57;3.30;;;;;;;;;;5014771;28;20686;-53
2022/04/20 02:30:09;;;;;;;2.90;2.70;;;;;;;;;;5020810;28;20559;-52
2022/04/20 02:32:36;;;;;;;3.27;2.90;;;;;;;;;;5019990;28;20233;-53
2022/04/20 02:35:02;;;;;;;3.00;2.80;;;;;;;;;;5010345;28;20185;-52
2022/04/20 02:37:29;;;;;;;3.10;2.83;;;;;;;;;;5035590;28;20600;-53
2022/04/20 02:39:55;;;;;;;2.80;2.60;;;;;;;;;;5013660;28;20247;-53
2022/04/20 02:42:22;;;;;;;3.37;3.00;;;;;;;;;;5020134;28;20183;-53
2022/04/20 02:44:48;;;;;;;4.57;3.50;;;;;;;;;;5008107;28;20267;-53
2022/04/20 02:47:16;;;;;;;3.10;2.90;;;;;;;;;;5018163;28;20190;-53
2022/04/20 02:49:42;;;;;;;2.90;2.70;;;;;;;;;;5023440;28;20239;-53
2022/04/20 02:52:08;;;;;;;3.07;2.87;;;;;;;;;;5031673;28;20260;-52
2022/04/20 02:54:34;;;;;;;3.03;2.83;;;;;;;;;;5019322;28;20223;-53
2022/04/20 02:57:00;;;;;;;3.13;2.60;;;;;;;;;;5027782;28;20199;-52
2022/04/20 02:59:27;;;;;;;2.40;2.30;;;;;;;;;;5009652;28;20223;-53
2022/04/20 03:01:53;;;;;;;3.43;2.60;;;;;;;;;;5009486;28;20238;-52
2022/04/20 03:04:20;;;;;;;2.93;2.63;;;;;;;;;;5016072;28;20204;-53
2022/04/20 03:06:46;;;;;;;2.90;2.70;;;;;;;;;;5018399;28;20648;-53
2022/04/20 03:09:12;;;;;;;3.57;3.20;;;;;;;;;;5017563;28;20200;-53
2022/04/20 03:11:40;;;;;;;2.90;2.70;;;;;;;;;;5016647;28;20440;-52
2022/04/20 03:14:06;;;;;;;3.13;2.77;;;;;;;;;;5002836;28;20629;-52
2022/04/20 03:16:32;;;;;;;11.97;11.17;;;;;;;;;;5018933;28;20177;-54
2022/04/20 03:18:58;;;;;;;3.90;3.60;;;;;;;;;;5024082;28;20181;-52
2022/04/20 03:21:24;;;;;;;3.67;3.37;;;;;;;;;;5009162;28;20178;-52
2022/04/20 03:23:50;;;;;;;2.67;2.47;;;;;;;;;;5010196;28;20170;-52
2022/04/20 03:26:17;;;;;;;4.97;4.60;;;;;;;;;;5015815;28;20198;-52
2022/04/20 03:28:46;;;;;;;3.00;2.73;;;;;;;;;;5017210;28;20179;-53
2022/04/20 03:31:12;;;;;;;5.00;4.70;;;;;;;;;;5018908;28;20192;-52
2022/04/20 03:33:39;;;;;;;2.60;2.40;;;;;;;;;;5014282;28;20273;-52
2022/04/20 03:36:08;;;;;;;2.73;2.53;;;;;;;;;;5011826;28;20182;-52
2022/04/20 03:38:35;;;;;;;2.90;2.70;;;;;;;;;;5009757;28;20532;-52
2022/04/20 03:41:04;;;;;;;3.37;3.07;;;;;;;;;;5016686;28;20206;-53
2022/04/20 03:43:30;;;;;;;2.83;2.63;;;;;;;;;;5038037;28;20182;-52
2022/04/20 03:45:56;;;;;;;3.03;2.83;;;;;;;;;;5015579;28;20205;-53
2022/04/20 03:48:23;;;;;;;3.67;3.27;;;;;;;;;;5007529;28;20264;-53
2022/04/20 03:50:49;;;;;;;2.67;2.47;;;;;;;;;;5011560;28;20183;-52
2022/04/20 03:53:16;;;;;;;3.50;3.20;;;;;;;;;;5018808;28;20266;-53
2022/04/20 03:55:43;;;;;;;3.30;3.00;;;;;;;;;;5022401;28;20181;-53
2022/04/20 03:58:09;;;;;;;3.33;3.00;;;;;;;;;;5025301;28;20212;-53
2022/04/20 04:00:36;;;;;;;3.10;2.80;;;;;;;;;;5028696;28;20277;-54
2022/04/20 04:03:02;;;;;;;3.20;3.00;;;;;;;;;;5019496;28;20217;-50
2022/04/20 04:05:28;;;;;;;3.40;2.80;;;;;;;;;;5025623;28;20560;-53
2022/04/20 04:07:54;;;;;;;3.23;3.03;;;;;;;;;;5041326;28;20182;-52
2022/04/20 04:10:20;;;;;;;7.10;6.70;;;;;;;;;;5022646;28;20244;-54
2022/04/20 04:12:46;;;;;;;3.67;3.37;;;;;;;;;;5026721;28;20194;-50
2022/04/20 04:15:16;;;;;;;3.10;2.83;;;;;;;;;;5022560;28;20182;-51
2022/04/20 04:17:42;;;;;;;4.60;2.63;;;;;;;;;;5021092;28;20221;-52
2022/04/20 04:20:09;;;;;;;2.97;2.77;;;;;;;;;;5024583;28;20194;-52
2022/04/20 04:22:38;;;;;;;2.57;2.33;;;;;;;;;;5025549;28;20188;-51
2022/04/20 04:25:04;;;;;;;3.70;3.43;;;;;;;;;;5013154;28;20521;-51
2022/04/20 04:27:30;;;;;;;2.87;2.67;;;;;;;;;;5025652;28;20181;-52
2022/04/20 04:29:58;;;;;;;5.97;5.67;;;;;;;;;;5013938;28;20179;-52
2022/04/20 04:32:24;;;;;;;2.60;2.40;;;;;;;;;;5036090;28;20287;-52
2022/04/20 04:34:50;;;;;;;3.17;2.80;;;;;;;;;;5012943;28;20178;-52
2022/04/20 04:37:16;;;;;;;3.70;3.40;;;;;;;;;;5019149;28;20205;-51
2022/04/20 04:39:43;;;;;;;3.63;3.23;;;;;;;;;;5015333;28;20281;-51
2022/04/20 04:42:09;;;;;;;2.83;2.53;;;;;;;;;;5017658;28;20190;-52
2022/04/20 04:44:36;;;;;;;3.03;2.73;;;;;;;;;;5034603;28;20206;-51
2022/04/20 04:49:46;;;;;;;3.40;3.10;;;;;;;;;;5012313;28;20202;-51
2022/04/20 04:52:13;;;;;;;4.57;4.20;;;;;;;;;;5018642;28;20261;-51
2022/04/20 04:54:42;;;;;;;3.27;2.97;;;;;;;;;;5018935;28;20186;-52
2022/04/20 04:57:09;;;;;;;2.90;2.70;;;;;;;;;;5012622;28;20691;-52
2022/04/20 04:59:39;;;;;;;2.90;2.70;;;;;;;;;;5012360;28;20688;-51
2022/04/20 05:02:06;;;;;;;3.63;3.43;;;;;;;;;;5021846;28;20178;-52
2022/04/20 05:04:32;;;;;;;2.70;2.50;;;;;;;;;;5024968;28;20300;-51
2022/04/20 05:06:59;;;;;;;2.60;2.40;;;;;;;;;;5025508;28;20983;-52
2022/04/20 05:09:26;;;;;;;3.50;3.20;;;;;;;;;;5018174;28;20216;-52
2022/04/20 05:11:52;;;;;;;2.90;2.70;;;;;;;;;;5026433;28;20534;-52
2022/04/20 05:14:19;;;;;;;3.47;3.17;;;;;;;;;;5013212;28;20739;-52
2022/04/20 05:16:45;;;;;;;2.93;2.73;;;;;;;;;;5001066;28;20175;-52
2022/04/20 05:19:11;;;;;;;5.17;2.90;;;;;;;;;;5019355;28;20214;-53
2022/04/20 05:21:37;;;;;;;3.50;3.20;;;;;;;;;;5014428;28;20213;-52
2022/04/20 05:24:03;;;;;;;2.87;2.67;;;;;;;;;;5014923;28;20202;-51
2022/04/20 05:26:30;;;;;;;3.20;2.90;;;;;;;;;;5029129;28;20201;-52
2022/04/20 05:28:56;;;;;;;5.67;2.73;;;;;;;;;;5022915;28;20174;-54
2022/04/20 05:31:22;;;;;;;2.67;2.40;;;;;;;;;;5016804;28;20221;-52
2022/04/20 05:33:49;;;;;;;3.03;2.77;;;;;;;;;;5014577;28;20182;-53
2022/04/20 05:36:18;;;;;;;3.00;2.80;;;;;;;;;;5019708;28;20192;-52
2022/04/20 05:41:41;;;;;;;2.90;2.60;;;;;;;;;;5027117;28;20688;-53
2022/04/20 05:44:08;;;;;;;3.53;3.23;;;;;;;;;;5015732;28;20648;-52
2022/04/20 05:46:35;;;;;;;3.10;2.80;;;;;;;;;;5023739;28;20659;-53
2022/04/20 05:49:01;;;;;;;2.93;2.73;;;;;;;;;;5032180;28;20273;-53
2022/04/20 05:51:27;;;;;;;2.93;2.73;;;;;;;;;;5021244;28;20188;-52
2022/04/20 05:53:54;;;;;;;2.77;2.53;;;;;;;;;;5017240;28;20190;-52
2022/04/20 05:56:20;;;;;;;8.50;2.97;;;;;;;;;;5032217;28;20484;-52
2022/04/20 05:58:47;;;;;;;3.67;2.70;;;;;;;;;;5010365;28;20739;-52
2022/04/20 06:01:16;;;;;;;3.37;2.50;;;;;;;;;;5016102;28;20244;-52
2022/04/20 06:03:42;;;;;;;2.80;2.60;;;;;;;;;;5013671;28;21069;-52
2022/04/20 06:06:09;;;;;;;3.10;2.90;;;;;;;;;;5012752;28;20210;-52
2022/04/20 06:08:35;;;;;;;2.80;2.60;;;;;;;;;;5013870;28;20225;-52
2022/04/20 06:11:01;;;;;;;3.23;2.93;;;;;;;;;;5037295;28;20189;-53
2022/04/20 06:13:28;;;;;;;3.47;2.90;;;;;;;;;;5011546;28;20681;-53
2022/04/20 06:15:55;;;;;;;3.70;2.50;;;;;;;;;;5021532;28;20190;-52
2022/04/20 06:18:21;;;;;;;3.07;2.83;;;;;;;;;;5023055;28;20190;-53
2022/04/20 06:20:47;;;;;;;3.50;3.07;;;;;;;;;;5029326;28;20718;-53
2022/04/20 06:23:14;;;;;;;2.83;2.63;;;;;;;;;;5027247;28;20272;-52
2022/04/20 06:25:40;;;;;;;3.40;2.90;;;;;;;;;;5027858;28;20205;-52
2022/04/20 06:28:07;;;;;;;3.27;3.00;;;;;;;;;;5029740;28;20173;-52
2022/04/20 06:30:33;;;;;;;2.70;2.50;;;;;;;;;;5029912;28;20219;-53
2022/04/20 06:32:59;;;;;;;3.43;3.13;;;;;;;;;;5028990;28;20629;-51
2022/04/20 06:35:25;;;;;;;4.80;3.33;;;;;;;;;;5025757;28;20546;-52
2022/04/20 06:37:51;;;;;;;3.50;3.20;;;;;;;;;;5045873;28;20547;-52
2022/04/20 06:40:17;;;;;;;3.23;2.93;;;;;;;;;;5017870;28;20186;-52
2022/04/20 06:42:43;;;;;;;3.80;3.50;;;;;;;;;;5027862;28;20189;-52
2022/04/20 06:45:10;;;;;;;3.33;3.10;;;;;;;;;;5019496;28;20633;-51
2022/04/20 06:47:36;;;;;;;3.80;3.00;;;;;;;;;;5020014;28;20604;-52
2022/04/20 06:50:02;;;;;;;3.57;3.23;;;;;;;;;;5008464;28;20692;-52
2022/04/20 07:00:42;;;;;;;3.57;3.20;;;;;;;;;;5014145;28;20395;-53
2022/04/20 07:03:09;;;;;;;3.17;2.87;;;;;;;;;;5016666;28;20191;-52
2022/04/20 07:05:35;;;;;;;2.97;2.77;;;;;;;;;;5016605;28;20228;-53
2022/04/20 07:08:02;;;;;;;4.10;3.77;;;;;;;;;;5009026;28;20602;-52
2022/04/20 07:10:28;;;;;;;3.70;3.40;;;;;;;;;;5027618;28;20273;-53
2022/04/20 07:12:55;;;;;;;3.40;3.10;;;;;;;;;;5017378;28;20179;-52
2022/04/20 07:15:21;;;;;;;5.47;3.43;;;;;;;;;;4993174;28;20300;-53
2022/04/20 07:17:47;;;;;;;2.53;2.33;;;;;;;;;;5029029;28;20236;-52
2022/04/20 07:20:17;;;;;;;2.87;2.63;;;;;;;;;;5009486;28;20190;-53
2022/04/20 07:22:54;;;;;;;3.00;2.47;;;;;;;;;;5015281;28;20208;-54
2022/04/20 07:25:20;;;;;;;3.87;2.60;;;;;;;;;;5014465;28;20810;-53
2022/04/20 07:27:48;;;;;;;2.87;2.67;;;;;;;;;;5017368;28;20193;-53
2022/04/20 07:30:15;;;;;;;3.00;2.70;;;;;;;;;;5024731;28;20179;-54
2022/04/20 07:32:41;;;;;;;3.00;2.70;;;;;;;;;;5017386;28;20814;-53
2022/04/20 07:35:07;;;;;;;3.00;2.10;;;;;;;;;;5026329;28;20637;-52
2022/04/20 07:37:33;;;;;;;3.67;2.63;;;;;;;;;;5025928;28;20189;-54
2022/04/20 07:40:00;;;;;;;6.60;2.57;;;;;;;;;;5014635;28;20185;-54
2022/04/20 07:42:26;;;;;;;2.93;2.73;;;;;;;;;;5060087;28;20184;-52
2022/04/20 07:44:56;;;;;;;3.07;2.77;;;;;;;;;;5024063;28;20198;-52
2022/04/20 07:47:24;;;;;;;2.60;2.40;;;;;;;;;;5020672;28;20538;-52
2022/04/20 07:52:40;;;;;;;2.50;2.30;;;;;;;;;;5014115;28;20261;-52
2022/04/20 07:55:10;;;;;;;2.30;2.10;;;;;;;;;;5026764;28;20179;-53
2022/04/20 07:57:36;;;;;;;3.20;2.60;;;;;;;;;;5022758;28;20226;-53
2022/04/20 08:00:06;;;;;;;2.47;2.27;;;;;;;;;;5017417;28;20268;-52
2022/04/20 08:02:33;;;;;;;3.73;2.70;;;;;;;;;;5026761;28;20186;-52
2022/04/20 08:04:59;;;;;;;2.77;2.57;;;;;;;;;;5012796;28;20208;-51
2022/04/20 08:07:29;;;;;;;3.70;2.33;;;;;;;;;;5018128;28;20179;-53
2022/04/20 08:09:55;;;;;;;2.20;2.00;;;;;;;;;;5015221;28;20673;-53
2022/04/20 08:12:21;;;;;;;2.90;2.70;;;;;;;;;;5042158;28;20207;-52
2022/04/20 08:14:47;;;;;;;2.93;2.30;;;;;;;;;;5017848;28;20182;-53
2022/04/20 08:17:14;;;;;;;3.60;2.70;;;;;;;;;;5014670;28;20495;-52
2022/04/20 08:19:40;;;;;;;2.50;2.30;;;;;;;;;;5030829;28;20182;-53
2022/04/20 08:22:06;;;;;;;2.50;2.30;;;;;;;;;;5014873;28;20185;-53
2022/04/20 08:24:32;;;;;;;2.70;2.50;;;;;;;;;;5019581;28;20208;-53
2022/04/20 08:26:59;;;;;;;2.70;2.50;;;;;;;;;;5020219;28;20181;-54
2022/04/20 08:29:25;;;;;;;2.93;2.47;;;;;;;;;;5012820;28;20186;-53
2022/04/20 08:31:51;;;;;;;2.77;2.57;;;;;;;;;;5015166;28;20242;-53
2022/04/20 08:34:18;;;;;;;3.97;2.83;;;;;;;;;;5015138;28;20183;-53
2022/04/20 08:36:44;;;;;;;2.90;2.67;;;;;;;;;;5022204;28;20178;-53
2022/04/20 08:39:10;;;;;;;4.10;2.60;;;;;;;;;;5025341;28;20263;-52
2022/04/20 08:41:36;;;;;;;2.40;2.20;;;;;;;;;;5014109;28;20249;-53
2022/04/20 08:44:04;;;;;;;2.60;2.40;;;;;;;;;;5018066;28;20645;-53
2022/04/20 08:46:33;;;;;;;2.93;2.73;;;;;;;;;;5007828;28;20213;-53
2022/04/20 08:49:00;;;;;;;3.23;2.93;;;;;;;;;;5008476;28;20202;-53
2022/04/20 08:52:37;;;;;;;2.90;2.70;;;;;;;;;;5021219;28;20187;-53
2022/04/20 08:54:12;;;;;;;2.93;2.73;;;;;;;;;;5018363;28;20278;-52
2022/04/20 08:59:24;;;;;;;3.83;2.40;;;;;;;;;;5010497;28;20628;-53
2022/04/20 09:01:50;;;;;;;3.10;2.67;;;;;;;;;;5016797;28;20653;-53
2022/04/20 09:04:16;;;;;;;3.00;2.80;;;;;;;;;;5019743;28;20224;-53
2022/04/20 09:06:45;;;;;;;3.37;3.07;;;;;;;;;;5017998;28;20190;-56
2022/04/20 09:09:11;;;;;;;3.17;2.87;;;;;;;;;;5012633;28;20198;-53
2022/04/20 09:11:38;;;;;;;3.07;2.60;;;;;;;;;;5023975;28;20186;-53
2022/04/20 09:14:13;;;;;;;4.10;2.97;;;;;;;;;;5009091;28;20182;-52
2022/04/20 09:16:41;;;;;;;2.90;2.70;;;;;;;;;;5035626;28;20552;-52
2022/04/20 09:19:08;;;;;;;2.97;2.77;;;;;;;;;;5021296;28;20187;-52
2022/04/20 09:21:34;;;;;;;2.17;2.03;;;;;;;;;;5019873;28;20183;-54
2022/04/20 09:24:10;;;;;;;3.63;2.67;;;;;;;;;;5012464;28;20211;-52
2022/04/20 09:29:15;;;;;;;2.70;2.50;;;;;;;;;;5044367;28;20204;-78
2022/04/20 09:31:45;;;;;;;3.57;2.27;;;;;;;;;;5043727;28;20330;-80
2022/04/20 09:37:17;;;;;;;2.40;2.30;;;;;;;;;;5045511;28;21007;-78
2022/04/20 09:39:47;;;;;;;2.57;2.37;;;;;;;;;;5046670;28;20177;-78
2022/04/20 09:42:14;;;;;;;2.70;2.50;;;;;;;;;;5046815;28;20174;-81
2022/04/20 09:44:52;;;;;;;2.60;2.40;;;;;;;;;;5051073;28;20224;-79
2022/04/20 09:50:06;;;;;;;13.30;3.43;;;;;;;;;;5053881;28;20196;-82
2022/04/20 09:52:36;;;;;;;3.80;3.10;;;;;;;;;;5049290;28;20231;-83
2022/04/20 09:55:05;;;;;;;7.73;3.30;;;;;;;;;;5051314;28;20185;-82
2022/04/20 09:57:32;;;;;;;6.17;3.67;;;;;;;;;;5053640;28;20228;-80
2022/04/20 09:59:59;;;;;;;10.07;3.20;;;;;;;;;;5069943;28;20177;-84
2022/04/20 10:02:27;;;;;;;28.00;6.23;;;;;;;;;;5050253;28;20260;-86
2022/04/20 10:04:55;;;;;;;30.50;5.93;;;;;;;;;;5048297;28;20198;-85
2022/04/20 10:07:21;;;;;;;66.87;9.93;;;;;;;;;;5051348;28;20204;-85
2022/04/20 10:09:47;;;;;;;71.00;12.33;;;;;;;;;;5051404;28;20181;-83
2022/04/20 10:12:15;;;;;;;150.10;15.37;;;;;;;;;;5051657;28;20685;-80
2022/04/20 10:17:27;;;;;;;32.87;7.73;;;;;;;;;;5048385;28;20749;-81
2022/04/20 10:19:54;;;;;;;153.07;19.07;;;;;;;;;;5046234;28;20612;-81
2022/04/20 10:22:21;;;;;;;152.20;19.87;;;;;;;;;;5048548;28;20559;-81
2022/04/20 10:24:53;;;;;;;69.87;10.97;;;;;;;;;;5049280;28;20296;-79
2022/04/20 10:27:23;;;;;;;54.80;9.90;;;;;;;;;;5058821;28;21664;-79
2022/04/20 10:30:03;;;;;;;71.13;10.77;;;;;;;;;;5046492;28;21315;-80
2022/04/20 10:32:38;;;;;;;47.67;7.27;;;;;;;;;;5043893;28;20185;-81
2022/04/20 10:35:05;;;;;;;49.90;7.57;;;;;;;;;;5029654;28;20197;-82
2022/04/20 10:37:31;;;;;;;92.77;11.53;;;;;;;;;;5045674;28;20297;-79
2022/04/20 10:40:14;;;;;;;61.67;10.03;;;;;;;;;;5046986;28;20185;-81
2022/04/20 10:42:40;;;;;;;78.73;11.47;;;;;;;;;;5060026;28;20197;-82
2022/04/20 10:45:07;;;;;;;113.17;15.20;;;;;;;;;;5047107;28;20225;-80
2022/04/20 10:47:36;;;;;;;189.50;18.80;;;;;;;;;;5041773;28;20278;-80
2022/04/20 10:50:16;;;;;;;187.00;24.97;;;;;;;;;;5059854;28;20196;-80
2022/04/20 10:52:46;;;;;;;56.27;8.97;;;;;;;;;;5063490;28;20246;-81
2022/04/20 10:55:12;;;;;;;36.40;7.50;;;;;;;;;;5045846;28;20639;-81
2022/04/20 10:57:42;;;;;;;46.10;8.53;;;;;;;;;;5045142;28;20213;-80
2022/04/20 11:00:18;;;;;;;20.97;4.77;;;;;;;;;;5045127;28;20257;-79
2022/04/20 11:03:02;;;;;;;7.17;3.73;;;;;;;;;;5045052;28;20685;-79
2022/04/20 11:05:28;;;;;;;17.90;4.07;;;;;;;;;;5040438;28;20212;-82
2022/04/20 11:08:00;;;;;;;6.00;3.20;;;;;;;;;;5043993;28;20280;-79
2022/04/20 11:10:26;;;;;;;55.47;8.83;;;;;;;;;;5042777;28;20182;-80
2022/04/20 11:21:07;;;;;;;25.70;4.57;;;;;;;;;;5046896;28;20244;-82
2022/04/20 11:23:53;;;;;;;12.47;3.90;;;;;;;;;;5046547;28;20197;-83
2022/04/20 11:26:24;;;;;;;5.20;3.50;;;;;;;;;;5050936;28;20210;-80
2022/04/20 11:28:51;;;;;;;7.43;4.03;;;;;;;;;;5054669;28;20072;-82
2022/04/20 11:31:17;;;;;;;;;;;;;;;;;;5051049;28;20024;-81
2022/04/20 11:33:43;;;;;;;;;;;;;;;;;;5048002;28;20050;-82
2022/04/20 11:36:13;;;;;;;4.53;3.40;;;;;;;;;;5047820;28;20394;-81
2022/04/20 11:38:40;;;;;;;;;;;;;;;;;;5049356;28;20033;-81
2022/04/20 11:41:06;;;;;;;;;;;;;;;;;;5052354;28;20300;-80
2022/04/20 11:43:31;;;;;;;;;;;;;;;;;;5049866;28;19913;-82
2022/04/20 11:45:58;;;;;;;;;;;;;;;;;;5050220;28;19963;-81
2022/04/20 11:48:24;;;;;;;;;;;;;;;;;;5051907;28;19928;-82
2022/04/20 11:50:57;;;;;;;3.50;3.03;;;;;;;;;;5050322;28;20501;-82
2022/04/20 11:53:23;;;;;;;;;;;;;;;;;;5049811;28;20431;-79
2022/04/20 11:55:49;;;;;;;2.90;2.70;;;;;;;;;;5049743;28;20177;-80
2022/04/20 11:58:15;;;;;;;;;;;;;;;;;;5051394;28;20067;-81
2022/04/20 12:00:41;;;;;;;4.47;3.30;;;;;;;;;;5048481;28;20215;-80
2022/04/20 12:03:08;;;;;;;4.43;4.20;;;;;;;;;;5048341;28;20037;-82
2022/04/20 12:05:34;;;;;;;3.67;3.33;;;;;;;;;;5051541;28;20238;-82
2022/04/20 12:08:00;;;;;;;;;;;;;;;;;;5041710;28;20432;-81
2022/04/20 12:10:26;;;;;;;;;;;;;;;;;;5049815;28;19912;-81
2022/04/20 12:12:53;;;;;;;;;;;;;;;;;;5049861;28;20418;-81
2022/04/20 12:15:20;;;;;;;;;;;;;;;;;;5051091;28;19912;-82
2022/04/20 12:17:46;;;;;;;;;;;;;;;;;;5045948;28;19916;-81
2022/04/20 12:20:12;;;;;;;;;;;;;;;;;;5045375;28;19909;-82
2022/04/20 12:22:38;;;;;;;3.55;3.35;;;;;;;;;;5051984;28;20405;-79
2022/04/20 12:25:04;;;;;;;;;;;;;;;;;;5055177;28;20102;-84
2022/04/20 12:27:30;;;;;;;;;;;;;;;;;;5054971;28;20497;-83
2022/04/20 12:29:56;;;;;;;;;;;;;;;;;;5053972;28;20303;-80
2022/04/20 12:32:22;;;;;;;;;;;;;;;;;;5053829;28;19970;-80
2022/04/20 12:34:55;;;;;;;3.33;3.03;;;;;;;;;;5052064;28;20007;-80
2022/04/20 12:37:22;;;;;;;;;;;;;;;;;;5053504;28;20127;-80
2022/04/20 12:39:48;;;;;;;;;;;;;;;;;;5053191;28;19920;-81
2022/04/20 12:42:14;;;;;;;;;;;;;;;;;;5052605;28;19916;-81
2022/04/20 12:44:47;;;;;;;3.60;3.30;;;;;;;;;;5051398;28;20775;-81
2022/04/20 12:47:16;;;;;;;4.85;3.30;;;;;;;;;;5051111;28;20400;-81
2022/04/20 12:49:48;;;;;;;3.30;3.03;;;;;;;;;;5051775;28;20527;-81
2022/04/20 12:52:25;;;;;;;3.13;2.83;;;;;;;;;;5050592;28;20504;-80
2022/04/20 12:54:54;;;;;;;3.90;3.42;;;;;;;;;;5066124;28;20412;-81
2022/04/20 13:03:00;;;;;;;4.25;2.72;;;;;;;;;;5049960;28;20388;-80
2022/04/20 13:05:26;;;;;;;3.90;2.70;;;;;;;;;;5049044;28;20413;-81
2022/04/20 13:07:52;;;;;;;3.60;3.08;;;;;;;;;;5049088;28;20397;-82
2022/04/20 13:10:18;;;;;;;4.18;2.72;;;;;;;;;;5046883;28;20410;-85
2022/04/20 13:12:51;;;;;;;3.55;2.88;;;;;;;;;;5049113;28;20397;-81
2022/04/20 13:15:18;;;;;;;3.10;2.70;;;;;;;;;;5052298;28;20397;-82
2022/04/20 13:17:47;;;;;;;4.00;2.70;;;;;;;;;;5048892;28;20499;-91
2022/04/20 13:20:13;;;;;;;2.95;2.65;;;;;;;;;;5065252;28;20882;-81
2022/04/20 13:22:39;;;;;;;3.33;3.03;;;;;;;;;;5050010;28;20405;-80
2022/04/20 13:27:54;;;;;;;4.00;2.85;;;;;;;;;;5050370;28;20535;-80
2022/04/20 13:30:20;;;;;;;3.63;2.78;;;;;;;;;;5052237;28;21016;-80
2022/04/20 13:32:46;;;;;;;3.55;2.78;;;;;;;;;;5048634;28;20406;-81
2022/04/20 13:35:12;;;;;;;3.95;2.67;;;;;;;;;;5049426;28;20393;-80
2022/04/20 13:37:38;;;;;;;2.90;2.70;;;;;;;;;;5048236;28;20901;-80
2022/04/20 13:40:05;;;;;;;2.90;2.50;;;;;;;;;;5050244;28;20944;-80
2022/04/20 13:42:31;;;;;;;3.30;2.87;;;;;;;;;;5045085;28;20393;-80
2022/04/20 13:44:57;;;;;;;3.60;2.90;;;;;;;;;;5044867;28;20759;-79
2022/04/20 13:47:23;;;;;;;2.90;2.70;;;;;;;;;;5049795;28;20397;-79
2022/04/20 13:49:49;;;;;;;2.80;2.60;;;;;;;;;;5049427;28;20424;-80
2022/04/20 13:52:15;;;;;;;2.80;2.60;;;;;;;;;;5049217;28;20704;-80
2022/04/20 13:54:44;;;;;;;4.13;2.75;;;;;;;;;;5049623;28;20427;-80
2022/04/20 13:57:10;;;;;;;4.15;3.75;;;;;;;;;;5049742;28;20831;-80
2022/04/20 13:59:36;;;;;;;5.75;5.25;;;;;;;;;;5043299;28;20401;-80
2022/04/20 14:02:02;;;;;;;3.50;3.20;;;;;;;;;;5049432;28;20834;-80
2022/04/20 14:04:28;;;;;;;5.43;4.95;;;;;;;;;;5047589;28;20405;-80
2022/04/20 14:06:54;;;;;;;3.60;3.30;;;;;;;;;;5050183;28;20626;-81
2022/04/20 14:09:20;;;;;;;3.40;3.10;;;;;;;;;;5050122;28;20193;-79
2022/04/20 14:11:46;;;;;;;5.87;3.23;;;;;;;;;;5046217;28;20937;-81
2022/04/20 14:14:12;;;;;;;3.80;3.40;;;;;;;;;;5050426;28;20436;-80
2022/04/20 14:16:41;;;;;;;4.97;3.73;;;;;;;;;;5050072;28;20239;-81
2022/04/20 14:19:10;;;;;;;4.67;3.43;;;;;;;;;;5048314;28;20193;-80
2022/04/20 14:21:36;;;;;;;5.23;4.47;;;;;;;;;;5048676;28;20212;-80
2022/04/20 14:24:03;;;;;;;6.07;3.73;;;;;;;;;;5048479;28;20694;-81
2022/04/20 14:32:12;;;;;;;8.43;3.70;;;;;;;;;;5035736;28;20188;-81
2022/04/20 14:34:41;;;;;;;4.83;3.60;;;;;;;;;;5036777;28;20181;-81
2022/04/20 14:37:07;;;;;;;3.93;3.20;;;;;;;;;;5048561;28;20185;-81
2022/04/20 14:39:35;;;;;;;3.90;3.60;;;;;;;;;;5049160;28;20627;-85
2022/04/20 14:42:01;;;;;;;7.70;4.80;;;;;;;;;;5033891;28;20182;-84
2022/04/20 14:44:27;;;;;;;4.40;4.03;;;;;;;;;;5050666;28;20549;-82
2022/04/20 14:46:54;;;;;;;4.07;3.77;;;;;;;;;;5051768;28;20648;-86
2022/04/20 14:49:20;;;;;;;4.23;3.93;;;;;;;;;;5046395;28;20182;-82
2022/04/20 14:51:46;;;;;;;3.80;3.50;;;;;;;;;;5050122;28;20609;-82
2022/04/20 14:54:16;;;;;;;3.80;3.50;;;;;;;;;;5047410;28;20647;-82
2022/04/20 14:56:42;;;;;;;4.20;3.73;;;;;;;;;;5049650;28;20254;-82
2022/04/20 14:59:09;;;;;;;6.03;4.10;;;;;;;;;;5045236;28;20182;-82
2022/04/20 15:01:35;;;;;;;4.80;4.30;;;;;;;;;;5041766;28;20663;-85
2022/04/20 15:04:02;;;;;;;4.00;3.67;;;;;;;;;;5048000;28;20582;-82
2022/04/20 15:06:31;;;;;;;4.37;4.03;;;;;;;;;;5049900;28;20420;-82
2022/04/20 15:08:58;;;;;;;5.80;4.10;;;;;;;;;;5047888;28;20200;-84
2022/04/20 15:11:27;;;;;;;7.03;4.70;;;;;;;;;;5050297;28;20191;-83
2022/04/20 15:13:57;;;;;;;4.83;4.43;;;;;;;;;;5051362;28;20173;-82
2022/04/20 15:16:23;;;;;;;5.00;4.60;;;;;;;;;;5048910;28;20248;-83
2022/04/20 15:18:49;;;;;;;5.07;4.67;;;;;;;;;;5045457;28;20284;-82
2022/04/20 15:21:15;;;;;;;5.33;4.40;;;;;;;;;;5052399;28;20522;-83
2022/04/20 15:23:42;;;;;;;5.67;4.37;;;;;;;;;;5039262;28;20182;-84
2022/04/20 15:26:09;;;;;;;6.20;4.30;;;;;;;;;;5046335;28;20579;-83
2022/04/20 15:28:39;;;;;;;4.27;3.90;;;;;;;;;;5048461;28;20355;-83
2022/04/20 15:31:07;;;;;;;4.10;3.80;;;;;;;;;;5041948;28;20185;-84
2022/04/20 15:33:34;;;;;;;4.73;4.37;;;;;;;;;;5047042;28;20275;-83
2022/04/20 15:36:00;;;;;;;4.67;4.33;;;;;;;;;;5045939;28;21008;-82
2022/04/20 15:38:29;;;;;;;5.77;5.27;;;;;;;;;;5044309;28;20236;-86
2022/04/20 15:40:55;;;;;;;5.43;4.97;;;;;;;;;;5045848;28;20191;-83
2022/04/20 15:43:24;;;;;;;6.40;4.83;;;;;;;;;;5043435;28;20259;-84